sensor_id;sensor_type;location;lat;lon;timestamp;P1;durP1;ratioP1;P2;durP2;ratioP2
46643;SDS011;32371;51.032;5.816;2022-08-19T00:00:04;15.15;;;11.15;;
46643;SDS011;32371;51.032;5.816;2022-08-19T00:02:33;16.52;;;11.55;;
46643;SDS011;32371;51.032;5.816;2022-08-19T00:04:59;17.73;;;12.00;;
46643;SDS011;32371;51.032;5.816;2022-08-19T00:07:24;16.30;;;12.07;;
46643;SDS011;32371;51.032;5.816;2022-08-19T00:09:49;19.48;;;12.23;;
46643;SDS011;32371;51.032;5.816;2022-08-19T00:12:15;17.90;;;11.82;;
46643;SDS011;32371;51.032;5.816;2022-08-19T00:14:40;18.88;;;12.00;;
46643;SDS011;32371;51.032;5.816;2022-08-19T00:17:07;16.35;;;11.80;;
46643;SDS011;32371;51.032;5.816;2022-08-19T00:19:33;19.08;;;12.93;;
46643;SDS011;32371;51.032;5.816;2022-08-19T00:21:58;15.52;;;11.00;;
46643;SDS011;32371;51.032;5.816;2022-08-19T00:24:24;15.32;;;10.70;;
46643;SDS011;32371;51.032;5.816;2022-08-19T00:26:50;17.77;;;11.80;;
46643;SDS011;32371;51.032;5.816;2022-08-19T00:29:16;17.77;;;11.57;;
46643;SDS011;32371;51.032;5.816;2022-08-19T00:31:43;17.23;;;12.05;;
46643;SDS011;32371;51.032;5.816;2022-08-19T00:34:09;21.08;;;12.95;;
46643;SDS011;32371;51.032;5.816;2022-08-19T00:36:36;22.73;;;12.07;;
46643;SDS011;32371;51.032;5.816;2022-08-19T00:39:03;17.50;;;12.50;;
46643;SDS011;32371;51.032;5.816;2022-08-19T00:41:28;19.10;;;12.25;;
46643;SDS011;32371;51.032;5.816;2022-08-19T00:44:05;18.48;;;12.25;;
46643;SDS011;32371;51.032;5.816;2022-08-19T00:46:33;18.13;;;11.23;;
46643;SDS011;32371;51.032;5.816;2022-08-19T00:49:00;20.17;;;12.40;;
46643;SDS011;32371;51.032;5.816;2022-08-19T00:51:28;19.48;;;12.93;;
46643;SDS011;32371;51.032;5.816;2022-08-19T00:53:55;18.08;;;12.27;;
46643;SDS011;32371;51.032;5.816;2022-08-19T00:56:22;17.73;;;12.10;;
46643;SDS011;32371;51.032;5.816;2022-08-19T00:58:48;18.27;;;11.90;;
46643;SDS011;32371;51.032;5.816;2022-08-19T01:01:14;17.02;;;11.20;;
46643;SDS011;32371;51.032;5.816;2022-08-19T01:03:39;16.50;;;11.75;;
46643;SDS011;32371;51.032;5.816;2022-08-19T01:06:05;19.77;;;11.55;;
46643;SDS011;32371;51.032;5.816;2022-08-19T01:08:31;15.82;;;11.15;;
46643;SDS011;32371;51.032;5.816;2022-08-19T01:10:57;19.38;;;13.05;;
46643;SDS011;32371;51.032;5.816;2022-08-19T01:13:24;18.70;;;11.50;;
46643;SDS011;32371;51.032;5.816;2022-08-19T01:15:53;16.17;;;10.85;;
46643;SDS011;32371;51.032;5.816;2022-08-19T01:18:21;19.27;;;12.02;;
46643;SDS011;32371;51.032;5.816;2022-08-19T01:20:46;20.05;;;11.50;;
46643;SDS011;32371;51.032;5.816;2022-08-19T01:23:12;18.20;;;11.90;;
46643;SDS011;32371;51.032;5.816;2022-08-19T01:25:42;20.55;;;12.18;;
46643;SDS011;32371;51.032;5.816;2022-08-19T01:28:20;16.70;;;12.02;;
46643;SDS011;32371;51.032;5.816;2022-08-19T01:30:47;18.00;;;12.00;;
46643;SDS011;32371;51.032;5.816;2022-08-19T01:33:13;17.45;;;12.27;;
46643;SDS011;32371;51.032;5.816;2022-08-19T01:35:39;16.77;;;12.40;;
46643;SDS011;32371;51.032;5.816;2022-08-19T01:38:07;16.88;;;12.15;;
46643;SDS011;32371;51.032;5.816;2022-08-19T01:40:36;17.55;;;11.65;;
46643;SDS011;32371;51.032;5.816;2022-08-19T01:43:04;16.40;;;11.38;;
46643;SDS011;32371;51.032;5.816;2022-08-19T01:45:31;17.65;;;12.63;;
46643;SDS011;32371;51.032;5.816;2022-08-19T01:47:57;16.98;;;11.77;;
46643;SDS011;32371;51.032;5.816;2022-08-19T01:50:24;18.48;;;11.73;;
46643;SDS011;32371;51.032;5.816;2022-08-19T01:52:49;18.40;;;11.80;;
46643;SDS011;32371;51.032;5.816;2022-08-19T01:55:16;15.15;;;10.52;;
46643;SDS011;32371;51.032;5.816;2022-08-19T01:57:44;19.55;;;12.63;;
46643;SDS011;32371;51.032;5.816;2022-08-19T02:00:12;18.85;;;11.90;;
46643;SDS011;32371;51.032;5.816;2022-08-19T02:02:40;19.65;;;11.23;;
46643;SDS011;32371;51.032;5.816;2022-08-19T02:05:05;19.30;;;12.38;;
46643;SDS011;32371;51.032;5.816;2022-08-19T02:07:33;16.77;;;11.07;;
46643;SDS011;32371;51.032;5.816;2022-08-19T02:10:00;18.95;;;12.43;;
46643;SDS011;32371;51.032;5.816;2022-08-19T02:12:28;18.80;;;11.88;;
46643;SDS011;32371;51.032;5.816;2022-08-19T02:14:54;19.13;;;12.75;;
46643;SDS011;32371;51.032;5.816;2022-08-19T02:17:19;19.63;;;12.48;;
46643;SDS011;32371;51.032;5.816;2022-08-19T02:19:45;19.67;;;12.23;;
46643;SDS011;32371;51.032;5.816;2022-08-19T02:22:10;19.42;;;11.48;;
46643;SDS011;32371;51.032;5.816;2022-08-19T02:24:36;22.92;;;12.98;;
46643;SDS011;32371;51.032;5.816;2022-08-19T02:27:01;17.30;;;11.57;;
46643;SDS011;32371;51.032;5.816;2022-08-19T02:29:27;20.13;;;12.13;;
46643;SDS011;32371;51.032;5.816;2022-08-19T02:31:52;17.85;;;11.23;;
46643;SDS011;32371;51.032;5.816;2022-08-19T02:34:17;21.30;;;12.40;;
46643;SDS011;32371;51.032;5.816;2022-08-19T02:36:43;18.50;;;11.88;;
46643;SDS011;32371;51.032;5.816;2022-08-19T02:39:09;18.50;;;12.23;;
46643;SDS011;32371;51.032;5.816;2022-08-19T02:41:34;22.08;;;12.93;;
46643;SDS011;32371;51.032;5.816;2022-08-19T02:44:00;19.20;;;12.65;;
46643;SDS011;32371;51.032;5.816;2022-08-19T02:46:28;24.50;;;12.13;;
46643;SDS011;32371;51.032;5.816;2022-08-19T02:48:56;21.80;;;13.63;;
46643;SDS011;32371;51.032;5.816;2022-08-19T02:51:24;19.27;;;12.05;;
46643;SDS011;32371;51.032;5.816;2022-08-19T02:53:51;18.83;;;12.85;;
46643;SDS011;32371;51.032;5.816;2022-08-19T02:56:18;21.30;;;12.77;;
46643;SDS011;32371;51.032;5.816;2022-08-19T02:58:44;22.38;;;13.07;;
46643;SDS011;32371;51.032;5.816;2022-08-19T03:01:10;16.98;;;12.10;;
46643;SDS011;32371;51.032;5.816;2022-08-19T03:03:36;19.42;;;13.20;;
46643;SDS011;32371;51.032;5.816;2022-08-19T03:06:06;21.58;;;14.05;;
46643;SDS011;32371;51.032;5.816;2022-08-19T03:08:34;20.83;;;13.03;;
46643;SDS011;32371;51.032;5.816;2022-08-19T03:10:59;25.45;;;13.23;;
46643;SDS011;32371;51.032;5.816;2022-08-19T03:13:25;17.65;;;12.60;;
46643;SDS011;32371;51.032;5.816;2022-08-19T03:15:50;25.65;;;13.68;;
46643;SDS011;32371;51.032;5.816;2022-08-19T03:18:16;18.98;;;12.13;;
46643;SDS011;32371;51.032;5.816;2022-08-19T03:20:45;21.10;;;13.35;;
46643;SDS011;32371;51.032;5.816;2022-08-19T03:23:12;19.98;;;12.40;;
46643;SDS011;32371;51.032;5.816;2022-08-19T03:25:38;22.90;;;14.20;;
46643;SDS011;32371;51.032;5.816;2022-08-19T03:28:06;23.10;;;14.18;;
46643;SDS011;32371;51.032;5.816;2022-08-19T03:30:32;22.77;;;13.07;;
46643;SDS011;32371;51.032;5.816;2022-08-19T03:32:57;23.38;;;13.65;;
46643;SDS011;32371;51.032;5.816;2022-08-19T03:35:23;25.45;;;14.88;;
46643;SDS011;32371;51.032;5.816;2022-08-19T03:37:48;20.85;;;13.60;;
46643;SDS011;32371;51.032;5.816;2022-08-19T03:40:14;24.08;;;14.20;;
46643;SDS011;32371;51.032;5.816;2022-08-19T03:42:39;21.52;;;13.73;;
46643;SDS011;32371;51.032;5.816;2022-08-19T03:45:07;25.52;;;15.15;;
46643;SDS011;32371;51.032;5.816;2022-08-19T03:47:33;23.90;;;16.23;;
46643;SDS011;32371;51.032;5.816;2022-08-19T03:49:58;24.95;;;13.77;;
46643;SDS011;32371;51.032;5.816;2022-08-19T03:52:24;24.50;;;15.15;;
46643;SDS011;32371;51.032;5.816;2022-08-19T03:54:49;26.15;;;14.73;;
46643;SDS011;32371;51.032;5.816;2022-08-19T03:57:14;26.90;;;15.00;;
46643;SDS011;32371;51.032;5.816;2022-08-19T03:59:40;26.63;;;15.25;;
46643;SDS011;32371;51.032;5.816;2022-08-19T04:02:09;31.15;;;17.08;;
46643;SDS011;32371;51.032;5.816;2022-08-19T04:04:36;26.95;;;16.33;;
46643;SDS011;32371;51.032;5.816;2022-08-19T04:07:02;27.63;;;15.57;;
46643;SDS011;32371;51.032;5.816;2022-08-19T04:09:28;26.52;;;16.00;;
46643;SDS011;32371;51.032;5.816;2022-08-19T04:11:54;28.83;;;16.73;;
46643;SDS011;32371;51.032;5.816;2022-08-19T04:14:22;30.65;;;16.02;;
46643;SDS011;32371;51.032;5.816;2022-08-19T04:16:50;31.58;;;16.75;;
46643;SDS011;32371;51.032;5.816;2022-08-19T04:19:17;29.48;;;15.15;;
46643;SDS011;32371;51.032;5.816;2022-08-19T04:21:44;24.88;;;14.82;;
46643;SDS011;32371;51.032;5.816;2022-08-19T04:24:11;30.25;;;15.77;;
46643;SDS011;32371;51.032;5.816;2022-08-19T04:26:37;28.05;;;16.70;;
46643;SDS011;32371;51.032;5.816;2022-08-19T04:29:25;32.78;;;16.75;;
46643;SDS011;32371;51.032;5.816;2022-08-19T04:31:50;27.73;;;15.98;;
46643;SDS011;32371;51.032;5.816;2022-08-19T04:34:19;32.92;;;17.33;;
46643;SDS011;32371;51.032;5.816;2022-08-19T04:36:49;32.00;;;17.45;;
46643;SDS011;32371;51.032;5.816;2022-08-19T04:39:29;33.30;;;17.52;;
46643;SDS011;32371;51.032;5.816;2022-08-19T04:42:14;35.10;;;17.40;;
46643;SDS011;32371;51.032;5.816;2022-08-19T04:44:59;37.53;;;18.05;;
46643;SDS011;32371;51.032;5.816;2022-08-19T04:47:24;33.10;;;17.83;;
46643;SDS011;32371;51.032;5.816;2022-08-19T04:49:50;30.70;;;17.27;;
46643;SDS011;32371;51.032;5.816;2022-08-19T04:52:16;31.40;;;17.08;;
46643;SDS011;32371;51.032;5.816;2022-08-19T04:54:41;35.60;;;18.05;;
46643;SDS011;32371;51.032;5.816;2022-08-19T04:57:07;35.28;;;18.15;;
46643;SDS011;32371;51.032;5.816;2022-08-19T04:59:34;35.35;;;18.67;;
46643;SDS011;32371;51.032;5.816;2022-08-19T05:02:00;33.90;;;17.52;;
46643;SDS011;32371;51.032;5.816;2022-08-19T05:04:26;36.97;;;20.02;;
46643;SDS011;32371;51.032;5.816;2022-08-19T05:06:53;30.40;;;17.48;;
46643;SDS011;32371;51.032;5.816;2022-08-19T05:09:19;33.53;;;18.05;;
46643;SDS011;32371;51.032;5.816;2022-08-19T05:11:46;38.15;;;17.50;;
46643;SDS011;32371;51.032;5.816;2022-08-19T05:14:11;33.28;;;18.30;;
46643;SDS011;32371;51.032;5.816;2022-08-19T05:16:40;40.85;;;18.60;;
46643;SDS011;32371;51.032;5.816;2022-08-19T05:19:05;37.92;;;19.48;;
46643;SDS011;32371;51.032;5.816;2022-08-19T05:21:50;34.53;;;17.45;;
46643;SDS011;32371;51.032;5.816;2022-08-19T05:24:34;34.65;;;18.40;;
46643;SDS011;32371;51.032;5.816;2022-08-19T05:27:00;37.63;;;17.90;;
46643;SDS011;32371;51.032;5.816;2022-08-19T05:29:28;35.17;;;18.25;;
46643;SDS011;32371;51.032;5.816;2022-08-19T05:31:54;40.78;;;20.27;;
46643;SDS011;32371;51.032;5.816;2022-08-19T05:34:21;36.75;;;18.77;;
46643;SDS011;32371;51.032;5.816;2022-08-19T05:36:47;43.28;;;20.00;;
46643;SDS011;32371;51.032;5.816;2022-08-19T05:39:15;40.00;;;20.58;;
46643;SDS011;32371;51.032;5.816;2022-08-19T05:41:43;37.22;;;19.83;;
46643;SDS011;32371;51.032;5.816;2022-08-19T05:44:09;41.67;;;18.65;;
46643;SDS011;32371;51.032;5.816;2022-08-19T05:46:36;37.38;;;19.60;;
46643;SDS011;32371;51.032;5.816;2022-08-19T05:49:03;36.70;;;17.92;;
46643;SDS011;32371;51.032;5.816;2022-08-19T05:51:30;42.25;;;19.67;;
46643;SDS011;32371;51.032;5.816;2022-08-19T05:53:57;37.50;;;17.73;;
46643;SDS011;32371;51.032;5.816;2022-08-19T05:56:23;39.10;;;17.95;;
46643;SDS011;32371;51.032;5.816;2022-08-19T05:58:48;35.25;;;18.35;;
46643;SDS011;32371;51.032;5.816;2022-08-19T06:01:15;33.22;;;16.83;;
46643;SDS011;32371;51.032;5.816;2022-08-19T06:03:42;31.98;;;16.65;;
46643;SDS011;32371;51.032;5.816;2022-08-19T06:06:08;35.42;;;16.58;;
46643;SDS011;32371;51.032;5.816;2022-08-19T06:08:35;36.88;;;17.80;;
46643;SDS011;32371;51.032;5.816;2022-08-19T06:11:21;32.42;;;15.50;;
46643;SDS011;32371;51.032;5.816;2022-08-19T06:14:08;31.42;;;16.15;;
46643;SDS011;32371;51.032;5.816;2022-08-19T06:16:36;30.50;;;14.70;;
46643;SDS011;32371;51.032;5.816;2022-08-19T06:19:04;30.83;;;16.20;;
46643;SDS011;32371;51.032;5.816;2022-08-19T06:21:32;28.75;;;15.43;;
46643;SDS011;32371;51.032;5.816;2022-08-19T06:23:58;28.38;;;15.68;;
46643;SDS011;32371;51.032;5.816;2022-08-19T06:26:24;24.58;;;14.80;;
46643;SDS011;32371;51.032;5.816;2022-08-19T06:28:49;26.70;;;14.43;;
46643;SDS011;32371;51.032;5.816;2022-08-19T06:31:16;28.58;;;14.98;;
46643;SDS011;32371;51.032;5.816;2022-08-19T06:33:43;27.25;;;14.70;;
46643;SDS011;32371;51.032;5.816;2022-08-19T06:39:11;29.08;;;15.15;;
46643;SDS011;32371;51.032;5.816;2022-08-19T06:41:39;30.75;;;14.93;;
46643;SDS011;32371;51.032;5.816;2022-08-19T06:44:06;29.38;;;14.88;;
46643;SDS011;32371;51.032;5.816;2022-08-19T06:46:32;27.73;;;13.57;;
46643;SDS011;32371;51.032;5.816;2022-08-19T06:48:58;24.88;;;14.30;;
46643;SDS011;32371;51.032;5.816;2022-08-19T06:51:24;36.78;;;15.32;;
46643;SDS011;32371;51.032;5.816;2022-08-19T06:53:50;26.00;;;13.45;;
46643;SDS011;32371;51.032;5.816;2022-08-19T06:56:17;27.02;;;13.73;;
46643;SDS011;32371;51.032;5.816;2022-08-19T06:58:49;26.83;;;14.55;;
46643;SDS011;32371;51.032;5.816;2022-08-19T07:01:17;30.55;;;15.43;;
46643;SDS011;32371;51.032;5.816;2022-08-19T07:03:44;29.88;;;14.80;;
46643;SDS011;32371;51.032;5.816;2022-08-19T07:06:12;25.67;;;13.95;;
46643;SDS011;32371;51.032;5.816;2022-08-19T07:08:40;28.25;;;13.20;;
46643;SDS011;32371;51.032;5.816;2022-08-19T07:11:07;25.27;;;12.50;;
46643;SDS011;32371;51.032;5.816;2022-08-19T07:13:35;26.17;;;13.95;;
46643;SDS011;32371;51.032;5.816;2022-08-19T07:16:09;29.33;;;14.15;;
46643;SDS011;32371;51.032;5.816;2022-08-19T07:18:36;27.77;;;13.77;;
46643;SDS011;32371;51.032;5.816;2022-08-19T07:21:06;25.70;;;14.02;;
46643;SDS011;32371;51.032;5.816;2022-08-19T07:23:33;23.38;;;13.20;;
46643;SDS011;32371;51.032;5.816;2022-08-19T07:26:04;25.00;;;13.48;;
46643;SDS011;32371;51.032;5.816;2022-08-19T07:28:33;29.33;;;13.40;;
46643;SDS011;32371;51.032;5.816;2022-08-19T07:30:58;26.05;;;12.32;;
46643;SDS011;32371;51.032;5.816;2022-08-19T07:33:25;23.38;;;12.73;;
46643;SDS011;32371;51.032;5.816;2022-08-19T07:35:51;27.10;;;13.55;;
46643;SDS011;32371;51.032;5.816;2022-08-19T07:38:17;25.20;;;12.82;;
46643;SDS011;32371;51.032;5.816;2022-08-19T07:40:43;21.30;;;11.80;;
46643;SDS011;32371;51.032;5.816;2022-08-19T07:43:11;24.40;;;11.70;;
46643;SDS011;32371;51.032;5.816;2022-08-19T07:45:36;25.55;;;11.25;;
46643;SDS011;32371;51.032;5.816;2022-08-19T07:48:01;21.77;;;12.15;;
46643;SDS011;32371;51.032;5.816;2022-08-19T07:50:29;21.98;;;11.82;;
46643;SDS011;32371;51.032;5.816;2022-08-19T07:52:54;19.85;;;11.32;;
46643;SDS011;32371;51.032;5.816;2022-08-19T07:55:25;23.15;;;12.30;;
46643;SDS011;32371;51.032;5.816;2022-08-19T07:57:51;22.92;;;11.52;;
46643;SDS011;32371;51.032;5.816;2022-08-19T08:00:17;20.23;;;10.90;;
46643;SDS011;32371;51.032;5.816;2022-08-19T08:02:43;23.27;;;11.02;;
46643;SDS011;32371;51.032;5.816;2022-08-19T08:05:09;21.52;;;10.80;;
46643;SDS011;32371;51.032;5.816;2022-08-19T08:07:53;23.80;;;10.85;;
46643;SDS011;32371;51.032;5.816;2022-08-19T08:10:37;17.65;;;10.07;;
46643;SDS011;32371;51.032;5.816;2022-08-19T08:13:03;16.00;;;10.02;;
46643;SDS011;32371;51.032;5.816;2022-08-19T08:15:30;17.77;;;10.00;;
46643;SDS011;32371;51.032;5.816;2022-08-19T08:17:55;19.58;;;11.52;;
46643;SDS011;32371;51.032;5.816;2022-08-19T08:20:22;18.73;;;10.18;;
46643;SDS011;32371;51.032;5.816;2022-08-19T08:22:48;16.73;;;9.68;;
46643;SDS011;32371;51.032;5.816;2022-08-19T08:25:32;18.73;;;10.05;;
46643;SDS011;32371;51.032;5.816;2022-08-19T08:27:58;16.17;;;9.95;;
46643;SDS011;32371;51.032;5.816;2022-08-19T08:30:25;15.32;;;9.00;;
46643;SDS011;32371;51.032;5.816;2022-08-19T08:32:51;15.30;;;9.35;;
46643;SDS011;32371;51.032;5.816;2022-08-19T08:35:18;18.08;;;8.52;;
46643;SDS011;32371;51.032;5.816;2022-08-19T08:37:46;12.80;;;7.82;;
46643;SDS011;32371;51.032;5.816;2022-08-19T08:42:45;11.88;;;6.85;;
46643;SDS011;32371;51.032;5.816;2022-08-19T08:45:17;13.10;;;7.22;;
46643;SDS011;32371;51.032;5.816;2022-08-19T08:47:43;13.07;;;7.57;;
46643;SDS011;32371;51.032;5.816;2022-08-19T08:50:21;11.43;;;7.03;;
46643;SDS011;32371;51.032;5.816;2022-08-19T08:52:53;19.08;;;7.43;;
46643;SDS011;32371;51.032;5.816;2022-08-19T08:55:22;14.18;;;7.53;;
46643;SDS011;32371;51.032;5.816;2022-08-19T09:02:47;11.38;;;5.50;;
46643;SDS011;32371;51.032;5.816;2022-08-19T09:05:12;7.47;;;4.70;;
46643;SDS011;32371;51.032;5.816;2022-08-19T09:10:39;8.35;;;5.00;;
46643;SDS011;32371;51.032;5.816;2022-08-19T09:16:20;10.85;;;6.25;;
46643;SDS011;32371;51.032;5.816;2022-08-19T09:18:53;12.82;;;6.13;;
46643;SDS011;32371;51.032;5.816;2022-08-19T09:21:23;10.70;;;5.82;;
46643;SDS011;32371;51.032;5.816;2022-08-19T09:23:50;14.95;;;5.78;;
46643;SDS011;32371;51.032;5.816;2022-08-19T09:26:18;7.95;;;5.43;;
46643;SDS011;32371;51.032;5.816;2022-08-19T09:28:45;9.90;;;6.00;;
46643;SDS011;32371;51.032;5.816;2022-08-19T09:31:13;8.45;;;4.63;;
46643;SDS011;32371;51.032;5.816;2022-08-19T09:33:39;10.38;;;5.10;;
46643;SDS011;32371;51.032;5.816;2022-08-19T09:36:09;9.63;;;5.25;;
46643;SDS011;32371;51.032;5.816;2022-08-19T09:38:36;9.43;;;6.68;;
46643;SDS011;32371;51.032;5.816;2022-08-19T09:41:03;9.23;;;5.07;;
46643;SDS011;32371;51.032;5.816;2022-08-19T09:43:30;8.13;;;5.30;;
46643;SDS011;32371;51.032;5.816;2022-08-19T09:45:56;8.80;;;5.10;;
46643;SDS011;32371;51.032;5.816;2022-08-19T09:48:21;10.05;;;5.20;;
46643;SDS011;32371;51.032;5.816;2022-08-19T09:50:47;8.18;;;5.10;;
46643;SDS011;32371;51.032;5.816;2022-08-19T09:53:12;9.55;;;4.93;;
46643;SDS011;32371;51.032;5.816;2022-08-19T09:55:41;8.95;;;5.60;;
46643;SDS011;32371;51.032;5.816;2022-08-19T09:58:07;7.22;;;6.25;;
46643;SDS011;32371;51.032;5.816;2022-08-19T10:00:33;7.22;;;5.20;;
46643;SDS011;32371;51.032;5.816;2022-08-19T10:02:58;7.05;;;4.80;;
46643;SDS011;32371;51.032;5.816;2022-08-19T10:05:24;8.75;;;3.80;;
46643;SDS011;32371;51.032;5.816;2022-08-19T10:08:07;3.85;;;3.22;;
46643;SDS011;32371;51.032;5.816;2022-08-19T10:10:35;6.20;;;3.58;;
46643;SDS011;32371;51.032;5.816;2022-08-19T10:13:00;4.88;;;3.58;;
46643;SDS011;32371;51.032;5.816;2022-08-19T10:15:26;5.80;;;4.13;;
46643;SDS011;32371;51.032;5.816;2022-08-19T10:17:51;9.45;;;4.40;;
46643;SDS011;32371;51.032;5.816;2022-08-19T10:20:16;7.80;;;4.60;;
46643;SDS011;32371;51.032;5.816;2022-08-19T10:22:42;12.85;;;4.72;;
46643;SDS011;32371;51.032;5.816;2022-08-19T10:25:08;10.98;;;3.90;;
46643;SDS011;32371;51.032;5.816;2022-08-19T10:27:33;6.28;;;3.67;;
46643;SDS011;32371;51.032;5.816;2022-08-19T10:29:59;5.82;;;3.40;;
46643;SDS011;32371;51.032;5.816;2022-08-19T10:32:24;5.50;;;3.92;;
46643;SDS011;32371;51.032;5.816;2022-08-19T10:34:51;7.20;;;4.30;;
46643;SDS011;32371;51.032;5.816;2022-08-19T10:37:17;5.35;;;4.10;;
46643;SDS011;32371;51.032;5.816;2022-08-19T10:39:43;6.40;;;3.60;;
46643;SDS011;32371;51.032;5.816;2022-08-19T10:42:12;7.47;;;3.45;;
46643;SDS011;32371;51.032;5.816;2022-08-19T10:44:38;7.88;;;3.72;;
46643;SDS011;32371;51.032;5.816;2022-08-19T10:47:04;7.03;;;3.25;;
46643;SDS011;32371;51.032;5.816;2022-08-19T10:49:30;7.55;;;3.97;;
46643;SDS011;32371;51.032;5.816;2022-08-19T10:51:57;8.98;;;4.20;;
46643;SDS011;32371;51.032;5.816;2022-08-19T10:54:41;5.70;;;3.85;;
46643;SDS011;32371;51.032;5.816;2022-08-19T10:57:25;5.50;;;3.90;;
46643;SDS011;32371;51.032;5.816;2022-08-19T10:59:54;4.60;;;3.60;;
46643;SDS011;32371;51.032;5.816;2022-08-19T11:02:20;7.78;;;3.88;;
46643;SDS011;32371;51.032;5.816;2022-08-19T11:04:46;3.85;;;2.63;;
46643;SDS011;32371;51.032;5.816;2022-08-19T11:07:12;4.72;;;3.10;;
46643;SDS011;32371;51.032;5.816;2022-08-19T11:09:39;4.15;;;3.00;;
46643;SDS011;32371;51.032;5.816;2022-08-19T11:12:06;4.93;;;3.38;;
46643;SDS011;32371;51.032;5.816;2022-08-19T11:14:33;2.83;;;2.13;;
46643;SDS011;32371;51.032;5.816;2022-08-19T11:16:58;4.05;;;3.00;;
46643;SDS011;32371;51.032;5.816;2022-08-19T11:19:24;3.42;;;2.78;;
46643;SDS011;32371;51.032;5.816;2022-08-19T11:21:50;4.72;;;3.30;;
46643;SDS011;32371;51.032;5.816;2022-08-19T11:24:20;6.18;;;3.63;;
46643;SDS011;32371;51.032;5.816;2022-08-19T11:29:17;4.38;;;3.10;;
46643;SDS011;32371;51.032;5.816;2022-08-19T11:31:46;3.95;;;2.22;;
46643;SDS011;32371;51.032;5.816;2022-08-19T11:34:17;3.65;;;2.38;;
46643;SDS011;32371;51.032;5.816;2022-08-19T11:36:44;7.97;;;2.03;;
46643;SDS011;32371;51.032;5.816;2022-08-19T11:39:11;6.70;;;2.00;;
46643;SDS011;32371;51.032;5.816;2022-08-19T11:41:39;1.95;;;1.70;;
46643;SDS011;32371;51.032;5.816;2022-08-19T11:44:04;1.80;;;1.60;;
46643;SDS011;32371;51.032;5.816;2022-08-19T11:46:31;1.42;;;1.33;;
46643;SDS011;32371;51.032;5.816;2022-08-19T11:48:57;2.45;;;1.60;;
46643;SDS011;32371;51.032;5.816;2022-08-19T11:51:24;3.85;;;1.77;;
46643;SDS011;32371;51.032;5.816;2022-08-19T11:53:50;2.92;;;1.73;;
46643;SDS011;32371;51.032;5.816;2022-08-19T11:56:17;2.13;;;1.73;;
46643;SDS011;32371;51.032;5.816;2022-08-19T11:58:43;1.55;;;1.45;;
46643;SDS011;32371;51.032;5.816;2022-08-19T12:01:09;5.60;;;1.80;;
46643;SDS011;32371;51.032;5.816;2022-08-19T12:03:40;1.95;;;1.60;;
46643;SDS011;32371;51.032;5.816;2022-08-19T12:06:09;5.05;;;2.58;;
46643;SDS011;32371;51.032;5.816;2022-08-19T12:08:40;3.78;;;1.73;;
46643;SDS011;32371;51.032;5.816;2022-08-19T12:11:06;3.47;;;1.83;;
46643;SDS011;32371;51.032;5.816;2022-08-19T12:13:33;3.65;;;1.75;;
46643;SDS011;32371;51.032;5.816;2022-08-19T12:15:59;3.05;;;1.85;;
46643;SDS011;32371;51.032;5.816;2022-08-19T12:18:25;1.35;;;1.25;;
46643;SDS011;32371;51.032;5.816;2022-08-19T12:20:50;1.70;;;1.52;;
46643;SDS011;32371;51.032;5.816;2022-08-19T12:23:17;2.95;;;1.70;;
46643;SDS011;32371;51.032;5.816;2022-08-19T12:25:43;4.78;;;1.50;;
46643;SDS011;32371;51.032;5.816;2022-08-19T12:28:14;1.92;;;1.40;;
46643;SDS011;32371;51.032;5.816;2022-08-19T12:30:40;1.80;;;1.70;;
46643;SDS011;32371;51.032;5.816;2022-08-19T12:33:06;3.13;;;1.08;;
46643;SDS011;32371;51.032;5.816;2022-08-19T12:35:32;1.77;;;1.20;;
46643;SDS011;32371;51.032;5.816;2022-08-19T12:37:58;5.05;;;2.22;;
46643;SDS011;32371;51.032;5.816;2022-08-19T12:40:26;2.83;;;1.52;;
46643;SDS011;32371;51.032;5.816;2022-08-19T12:42:52;2.75;;;1.30;;
46643;SDS011;32371;51.032;5.816;2022-08-19T12:45:18;1.55;;;1.40;;
46643;SDS011;32371;51.032;5.816;2022-08-19T12:47:44;1.60;;;1.50;;
46643;SDS011;32371;51.032;5.816;2022-08-19T12:50:11;1.42;;;1.27;;
46643;SDS011;32371;51.032;5.816;2022-08-19T12:52:36;1.48;;;1.17;;
46643;SDS011;32371;51.032;5.816;2022-08-19T12:55:02;0.80;;;0.77;;
46643;SDS011;32371;51.032;5.816;2022-08-19T12:57:30;1.10;;;0.82;;
46643;SDS011;32371;51.032;5.816;2022-08-19T12:59:58;1.50;;;0.80;;
46643;SDS011;32371;51.032;5.816;2022-08-19T13:02:25;2.95;;;1.10;;
46643;SDS011;32371;51.032;5.816;2022-08-19T13:04:51;4.32;;;1.25;;
46643;SDS011;32371;51.032;5.816;2022-08-19T13:07:16;2.90;;;1.15;;
46643;SDS011;32371;51.032;5.816;2022-08-19T13:09:41;2.92;;;1.00;;
46643;SDS011;32371;51.032;5.816;2022-08-19T13:12:07;3.50;;;1.30;;
46643;SDS011;32371;51.032;5.816;2022-08-19T13:14:37;1.15;;;0.98;;
46643;SDS011;32371;51.032;5.816;2022-08-19T13:17:05;2.65;;;1.10;;
46643;SDS011;32371;51.032;5.816;2022-08-19T13:19:31;2.13;;;1.10;;
46643;SDS011;32371;51.032;5.816;2022-08-19T13:21:56;1.65;;;0.82;;
46643;SDS011;32371;51.032;5.816;2022-08-19T13:24:22;1.42;;;0.93;;
46643;SDS011;32371;51.032;5.816;2022-08-19T13:26:48;2.15;;;0.98;;
46643;SDS011;32371;51.032;5.816;2022-08-19T13:29:13;4.85;;;1.05;;
46643;SDS011;32371;51.032;5.816;2022-08-19T13:31:57;1.73;;;1.02;;
46643;SDS011;32371;51.032;5.816;2022-08-19T13:34:41;3.33;;;1.42;;
46643;SDS011;32371;51.032;5.816;2022-08-19T13:37:07;2.22;;;1.10;;
46643;SDS011;32371;51.032;5.816;2022-08-19T13:39:32;3.60;;;1.10;;
46643;SDS011;32371;51.032;5.816;2022-08-19T13:41:58;2.08;;;1.00;;
46643;SDS011;32371;51.032;5.816;2022-08-19T13:44:24;1.73;;;1.17;;
46643;SDS011;32371;51.032;5.816;2022-08-19T13:46:51;1.40;;;1.13;;
46643;SDS011;32371;51.032;5.816;2022-08-19T13:49:17;1.73;;;1.00;;
46643;SDS011;32371;51.032;5.816;2022-08-19T13:51:44;3.53;;;1.25;;
46643;SDS011;32371;51.032;5.816;2022-08-19T13:54:10;2.25;;;1.15;;
46643;SDS011;32371;51.032;5.816;2022-08-19T13:56:42;1.77;;;1.30;;
46643;SDS011;32371;51.032;5.816;2022-08-19T13:59:09;0.80;;;0.80;;
46643;SDS011;32371;51.032;5.816;2022-08-19T14:01:35;5.03;;;0.95;;
46643;SDS011;32371;51.032;5.816;2022-08-19T14:04:01;2.28;;;1.00;;
46643;SDS011;32371;51.032;5.816;2022-08-19T14:06:27;2.42;;;1.20;;
46643;SDS011;32371;51.032;5.816;2022-08-19T14:08:53;1.65;;;0.90;;
46643;SDS011;32371;51.032;5.816;2022-08-19T14:11:18;1.55;;;1.02;;
46643;SDS011;32371;51.032;5.816;2022-08-19T14:13:44;1.30;;;1.00;;
46643;SDS011;32371;51.032;5.816;2022-08-19T14:16:10;1.05;;;1.05;;
46643;SDS011;32371;51.032;5.816;2022-08-19T14:18:36;2.15;;;1.38;;
46643;SDS011;32371;51.032;5.816;2022-08-19T14:21:03;2.20;;;1.05;;
46643;SDS011;32371;51.032;5.816;2022-08-19T14:23:29;2.33;;;1.02;;
46643;SDS011;32371;51.032;5.816;2022-08-19T14:26:06;2.30;;;1.10;;
46643;SDS011;32371;51.032;5.816;2022-08-19T14:28:36;2.83;;;0.90;;
46643;SDS011;32371;51.032;5.816;2022-08-19T14:31:02;1.95;;;1.30;;
46643;SDS011;32371;51.032;5.816;2022-08-19T14:33:27;1.42;;;1.00;;
46643;SDS011;32371;51.032;5.816;2022-08-19T14:35:53;2.35;;;1.00;;
46643;SDS011;32371;51.032;5.816;2022-08-19T14:38:18;3.85;;;1.33;;
46643;SDS011;32371;51.032;5.816;2022-08-19T14:40:44;2.20;;;1.30;;
46643;SDS011;32371;51.032;5.816;2022-08-19T14:43:10;2.15;;;1.20;;
46643;SDS011;32371;51.032;5.816;2022-08-19T14:45:37;1.83;;;1.13;;
46643;SDS011;32371;51.032;5.816;2022-08-19T14:48:07;3.08;;;1.75;;
46643;SDS011;32371;51.032;5.816;2022-08-19T14:50:33;1.48;;;1.08;;